Cocoa, FL (32922)

3:33 AM EST on November 28, 2014 (GMT -0500)
Indian River Club | Change Station
CLOSE
Current Station
Personal Weather Station
Location: Rockledge, FL
Elevation: 12 ft
Nearby Weather Stations

Elev 12 ft 28.33 °N, 80.72 °W | Updated 52 seconds ago

Clear
Clear
48.0 °F
Feels Like 45 °F
N
7.0
Wind Variable Wind from NW
Gusts 8.0 mph

Today
High -- | Low -- °F
--% Chance of Precip.
Yesterday
High -- | Low -- °F
Precip. -- in
6:55 AM 5:26 PM
Waxing Crescent, 38% visible
Pressure 30.26 in
Visibility 10.0 miles
Clouds Clear
Windchill 45 °F
Dew Point 39 °F
Humidity 70%
Rainfall 0.00 in
Snow Depth Not available.
UV 0 out of 12
Pollen 4.00 out of 12
Air Quality Not available.
Flu Activity Not available.
METAR KCOF 280758Z AUTO 32016KT 10SM CLR 11/06 A3024 RMK AO2 SLP245 T01120056

More Conditions Fewer Conditions

Pressure 30.26 in
Visibility 10.0 miles
Clouds Clear
Windchill 45 °F
Dew Point 39 °F
Humidity 70%
Rainfall 0.00 in
Snow Depth Not available.
UV 0 out of 12
Pollen 4.00 out of 12
Air Quality Not available.
Flu Activity Not available.
METAR KCOF 280758Z AUTO 32016KT 10SM CLR 11/06 A3024 RMK AO2 SLP245 T01120056

More Conditions Fewer Conditions

10-Day Weather Forecast

Almanac

Astronomy

Nov. 28, 2014 Rise Set
Actual Time
Civil Twilight
Nautical Twilight
Astronomical Twilight
Moon
Length of Visible Light
Length of Day
Tomorrow will be .
, % of the Moon is Illuminated

Today's Extremes

State Highs State Lows

Community

WunderPhotos

Upload Photos

1,774,191 photos uploaded!

WunderBlogs® & News

Nearby

Air Quality

  Air Quality AQ Index Pollutant
Not available.

Snow Depth

Station Depth Elevation

Earthquake Activity

City Distance Mag. Time & Date
Minimum magnitude displayed is 2.5.

Coastal Water Temperatures

Place Temperature

Nearby Weather Stations